Time;durP1;ratioP1;P1;durP2;ratioP2;P2;SDS_P1;SDS_P2;PMS_P1;PMS_P2;Temp;Humidity;BMP_temperature;BMP_pressure;BME280_temperature;BME280_humidity;BME280_pressure;Samples;Min_cycle;Max_cycle;Signal;HPM_P1;HPM_P2
2023/03/31 00:01:28;;;;;;;5.53;2.00;;;8.50;99.90;;;;;;4999208;28;20022;-60
2023/03/31 00:04:03;;;;;;;9.70;2.83;;;8.50;99.90;;;;;;4998750;28;20038;-59
2023/03/31 00:06:31;;;;;;;7.15;1.63;;;8.50;99.90;;;;;;4999259;28;20041;-59
2023/03/31 00:09:00;;;;;;;6.68;1.58;;;8.40;99.90;;;;;;4998404;28;20026;-59
2023/03/31 00:11:27;;;;;;;11.07;1.70;;;8.50;99.90;;;;;;5001095;28;20057;-59
2023/03/31 00:13:53;;;;;;;6.63;1.70;;;8.50;99.90;;;;;;5001372;28;20535;-60
2023/03/31 00:16:19;;;;;;;4.22;1.50;;;8.50;99.90;;;;;;4997523;28;20168;-58
2023/03/31 00:18:46;;;;;;;5.10;1.60;;;8.60;99.90;;;;;;4996907;28;20052;-59
2023/03/31 00:21:32;;;;;;;3.58;1.30;;;8.60;99.90;;;;;;4998312;28;20517;-57
2023/03/31 00:24:03;;;;;;;5.60;1.40;;;8.70;99.90;;;;;;4998890;28;20030;-60
2023/03/31 00:26:29;;;;;;;5.75;1.92;;;8.60;99.90;;;;;;4998913;28;20026;-59
2023/03/31 00:28:56;;;;;;;2.97;1.40;;;8.60;99.90;;;;;;4998448;28;20018;-60
2023/03/31 00:31:23;;;;;;;10.23;2.20;;;8.50;99.90;;;;;;4998761;28;20454;-60
2023/03/31 00:33:49;;;;;;;7.22;1.88;;;8.50;99.90;;;;;;4999644;28;20032;-60
2023/03/31 00:36:19;;;;;;;7.10;1.98;;;8.40;99.90;;;;;;4996514;28;20092;-60
2023/03/31 00:38:46;;;;;;;5.32;1.90;;;8.40;99.90;;;;;;4998717;28;20038;-59
2023/03/31 00:41:13;;;;;;;4.47;1.80;;;8.40;99.90;;;;;;5000038;28;20041;-59
2023/03/31 00:43:39;;;;;;;8.80;1.85;;;8.40;99.90;;;;;;4999100;28;20026;-60
2023/03/31 00:46:18;;;;;;;8.13;1.73;;;8.40;99.90;;;;;;5000127;28;20041;-60
2023/03/31 00:48:56;;;;;;;12.60;2.58;;;8.50;99.90;;;;;;4998968;28;20080;-60
2023/03/31 00:51:28;;;;;;;4.10;1.60;;;8.50;99.90;;;;;;4997382;28;20048;-59
2023/03/31 00:53:58;;;;;;;10.63;2.30;;;8.50;99.90;;;;;;4998836;28;20049;-59
2023/03/31 00:56:27;;;;;;;11.02;2.50;;;8.50;99.90;;;;;;4999826;28;20042;-58
2023/03/31 00:58:58;;;;;;;7.68;1.90;;;8.40;99.90;;;;;;5000767;28;20026;-61
2023/03/31 01:01:25;;;;;;;;;;;8.40;99.90;;;;;;5001676;28;20039;-59
2023/03/31 01:03:52;;;;;;;11.50;1.88;;;8.40;99.90;;;;;;4995738;28;19910;-60
2023/03/31 01:06:22;;;;;;;6.57;1.80;;;8.50;99.90;;;;;;4995348;28;20037;-61
2023/03/31 01:08:50;;;;;;;4.50;1.65;;;8.50;99.90;;;;;;4982427;28;20034;-59
2023/03/31 01:11:19;;;;;;;3.97;1.77;;;8.50;99.90;;;;;;4995942;28;21111;-59
2023/03/31 01:13:48;;;;;;;5.38;1.52;;;8.40;99.90;;;;;;4996614;28;20045;-60
2023/03/31 01:16:15;;;;;;;4.97;2.35;;;8.40;99.90;;;;;;4996194;28;20050;-59
2023/03/31 01:18:45;;;;;;;6.32;1.65;;;8.50;99.90;;;;;;4998030;28;20037;-60
2023/03/31 01:21:29;;;;;;;12.35;2.22;;;8.50;99.90;;;;;;4997857;28;20034;-59
2023/03/31 01:24:16;;;;;;;5.97;1.60;;;8.50;99.90;;;;;;4995675;28;20026;-60
2023/03/31 01:27:05;;;;;;;4.10;1.08;;;8.50;99.90;;;;;;4998104;28;20109;-58
2023/03/31 01:29:59;;;;;;;5.32;1.40;;;8.50;99.90;;;;;;4995576;28;20026;-60
2023/03/31 01:32:42;;;;;;;4.68;1.50;;;8.60;99.90;;;;;;4996320;28;20034;-60
2023/03/31 01:35:37;;;;;;;3.67;1.33;;;8.60;99.90;;;;;;4996987;28;20018;-59
2023/03/31 01:38:16;;;;;;;3.05;1.35;;;8.60;99.90;;;;;;4994417;28;20034;-60
2023/03/31 01:41:02;;;;;;;3.50;1.83;;;8.70;99.90;;;;;;4997338;28;20126;-61
2023/03/31 01:43:34;;;;;;;4.88;1.13;;;8.70;99.90;;;;;;4996641;28;20088;-59
2023/03/31 01:46:19;;;;;;;6.88;1.40;;;8.70;99.90;;;;;;4997308;28;20027;-58
2023/03/31 01:49:00;;;;;;;4.47;1.13;;;8.70;99.90;;;;;;4997124;28;20041;-59
2023/03/31 01:51:37;;;;;;;6.22;1.27;;;8.70;99.90;;;;;;4997452;28;20049;-60
2023/03/31 01:54:03;;;;;;;3.22;1.10;;;8.70;99.90;;;;;;4996686;28;20029;-59
2023/03/31 01:56:36;;;;;;;4.03;1.25;;;8.70;99.90;;;;;;4996122;28;20046;-60
2023/03/31 01:59:14;;;;;;;2.67;0.90;;;8.60;99.90;;;;;;4995309;28;20065;-58
2023/03/31 02:02:01;;;;;;;7.22;1.40;;;8.60;99.90;;;;;;4995225;28;20762;-59
2023/03/31 02:04:56;;;;;;;6.80;1.20;;;8.50;99.90;;;;;;4995146;28;20068;-58
2023/03/31 02:07:27;;;;;;;2.42;0.98;;;8.40;99.90;;;;;;4994693;28;20073;-59
2023/03/31 02:09:59;;;;;;;4.18;1.00;;;8.40;99.90;;;;;;4998541;28;20104;-61
2023/03/31 02:12:27;;;;;;;7.03;1.40;;;8.30;99.90;;;;;;4995360;28;20022;-60
2023/03/31 02:14:55;;;;;;;3.22;0.98;;;8.30;99.90;;;;;;4996306;28;20030;-60
2023/03/31 02:17:29;;;;;;;4.63;1.27;;;8.30;99.90;;;;;;4996405;28;20034;-59
2023/03/31 02:19:57;;;;;;;3.17;1.27;;;8.30;99.90;;;;;;4994599;28;20463;-60
2023/03/31 02:22:23;;;;;;;2.17;1.20;;;8.30;99.90;;;;;;4993909;28;20045;-59
2023/03/31 02:24:51;;;;;;;3.50;1.08;;;8.30;99.90;;;;;;4995461;28;20151;-62
2023/03/31 02:27:37;;;;;;;2.72;1.35;;;8.30;99.90;;;;;;4998743;28;20034;-60
2023/03/31 02:30:05;;;;;;;5.85;1.17;;;8.20;99.90;;;;;;4993366;28;20115;-59
2023/03/31 02:32:39;;;;;;;6.35;1.33;;;8.30;99.90;;;;;;4994444;28;20026;-59
2023/03/31 02:35:10;;;;;;;8.43;1.13;;;8.20;99.90;;;;;;4995173;28;20918;-60
2023/03/31 02:37:38;;;;;;;3.45;1.02;;;8.20;99.90;;;;;;4998923;28;20057;-61
2023/03/31 02:40:11;;;;;;;4.65;0.95;;;8.10;99.90;;;;;;5014745;28;20077;-60
2023/03/31 02:42:38;;;;;;;5.55;1.60;;;8.10;99.90;;;;;;4996529;28;20053;-59
2023/03/31 02:45:06;;;;;;;5.07;1.52;;;8.10;99.90;;;;;;4997053;28;20038;-60
2023/03/31 02:47:32;;;;;;;6.43;1.67;;;8.00;99.90;;;;;;4995656;28;20035;-59
2023/03/31 02:50:00;;;;;;;5.25;1.10;;;8.00;99.90;;;;;;4993759;28;20088;-60
2023/03/31 02:52:36;;;;;;;4.93;1.23;;;8.00;99.90;;;;;;4996508;28;20122;-60
2023/03/31 02:55:09;;;;;;;8.77;1.50;;;8.00;99.90;;;;;;4995220;28;20063;-58
2023/03/31 02:57:38;;;;;;;5.78;1.58;;;8.00;99.90;;;;;;4992774;28;20041;-59
2023/03/31 03:00:25;;;;;;;3.22;1.60;;;8.00;99.90;;;;;;4998334;28;20022;-60
2023/03/31 03:03:24;;;;;;;4.85;1.20;;;8.10;99.90;;;;;;5002228;28;20032;-59
2023/03/31 03:06:12;;;;;;;5.97;1.30;;;8.10;99.90;;;;;;5002276;28;20184;-60
2023/03/31 03:09:18;;;;;;;8.88;1.30;;;8.10;99.90;;;;;;4999893;28;20035;-58
2023/03/31 03:12:15;;;;;;;4.55;1.38;;;8.20;99.90;;;;;;5000870;28;20112;-60
2023/03/31 03:14:59;;;;;;;4.75;1.30;;;8.30;99.90;;;;;;5000412;28;20042;-58
2023/03/31 03:17:36;;;;;;;4.57;1.38;;;8.30;99.90;;;;;;5001211;28;20406;-60
2023/03/31 03:20:08;;;;;;;4.03;1.17;;;8.40;99.90;;;;;;4998318;28;20031;-60
2023/03/31 03:22:35;;;;;;;5.00;1.70;;;8.40;99.90;;;;;;5002232;28;20022;-61
2023/03/31 03:25:00;;;;;;;3.30;1.00;;;8.40;99.90;;;;;;4998213;28;20034;-60
2023/03/31 03:27:27;;;;;;;5.63;1.50;;;8.40;99.90;;;;;;5001217;28;20460;-59
2023/03/31 03:29:52;;;;;;;5.07;2.10;;;8.40;99.90;;;;;;4999681;28;20041;-59
2023/03/31 03:32:18;;;;;;;4.30;1.35;;;8.40;99.90;;;;;;5001563;28;20053;-61
2023/03/31 03:34:44;;;;;;;4.15;1.35;;;8.40;99.90;;;;;;5000427;28;20041;-58
2023/03/31 03:37:10;;;;;;;6.72;1.48;;;8.40;99.90;;;;;;5000987;28;20042;-58
2023/03/31 03:39:36;;;;;;;10.35;1.77;;;8.40;99.90;;;;;;5000448;28;20022;-58
2023/03/31 03:42:02;;;;;;;3.90;1.48;;;8.40;99.90;;;;;;5000741;28;20033;-59
2023/03/31 03:44:28;;;;;;;2.83;1.10;;;8.40;99.90;;;;;;4998898;28;20398;-58
2023/03/31 03:46:54;;;;;;;4.35;1.55;;;8.40;99.90;;;;;;4998659;28;20034;-59
2023/03/31 03:49:19;;;;;;;4.28;1.20;;;8.40;99.90;;;;;;4998864;28;20050;-60
2023/03/31 03:51:45;;;;;;;3.78;1.30;;;8.40;99.90;;;;;;4997103;28;20038;-58
2023/03/31 03:54:11;;;;;;;4.32;1.50;;;8.40;99.90;;;;;;4996561;28;20034;-60
2023/03/31 03:56:36;;;;;;;4.25;1.60;;;8.40;99.90;;;;;;5001846;28;20046;-57
2023/03/31 03:59:02;;;;;;;3.78;1.80;;;8.40;99.90;;;;;;5000193;28;20026;-59
2023/03/31 04:01:28;;;;;;;2.80;1.33;;;8.40;99.90;;;;;;5000825;28;20765;-59
2023/03/31 04:03:54;;;;;;;3.50;1.45;;;8.40;99.90;;;;;;5001959;28;20034;-60
2023/03/31 04:06:19;;;;;;;3.15;1.38;;;8.40;99.90;;;;;;4999230;28;20026;-61
2023/03/31 04:08:45;;;;;;;3.25;1.60;;;8.40;99.90;;;;;;4999210;28;20465;-58
2023/03/31 04:11:16;;;;;;;12.38;1.63;;;8.40;99.90;;;;;;4998094;28;20422;-59
2023/03/31 04:13:43;;;;;;;5.70;2.08;;;8.40;99.90;;;;;;4996765;28;20169;-59
2023/03/31 04:16:09;;;;;;;3.20;1.13;;;8.40;99.90;;;;;;5001164;28;20524;-59
2023/03/31 04:18:41;;;;;;;3.67;1.42;;;8.40;99.90;;;;;;4999283;28;20023;-60
2023/03/31 04:21:14;;;;;;;5.95;1.13;;;8.40;99.90;;;;;;4999190;28;20030;-58
2023/03/31 04:23:46;;;;;;;6.15;1.83;;;8.30;99.90;;;;;;5000415;28;20038;-60
2023/03/31 04:26:17;;;;;;;9.55;1.77;;;8.30;99.90;;;;;;4996777;28;20038;-58
2023/03/31 04:28:49;;;;;;;7.15;2.17;;;8.30;99.90;;;;;;5000783;28;20030;-60
2023/03/31 04:31:23;;;;;;;5.20;1.90;;;8.30;99.90;;;;;;4998751;28;20070;-61
2023/03/31 04:33:50;;;;;;;4.32;1.98;;;8.20;99.90;;;;;;5001418;28;20494;-58
2023/03/31 04:36:18;;;;;;;6.93;1.88;;;8.20;99.90;;;;;;4998988;28;20765;-60
2023/03/31 04:38:45;;;;;;;3.13;2.03;;;8.30;99.90;;;;;;5001571;28;20045;-58
2023/03/31 04:41:14;;;;;;;7.63;2.85;;;8.30;99.90;;;;;;5000303;28;20029;-60
2023/03/31 04:43:41;;;;;;;7.53;1.80;;;8.30;99.90;;;;;;4998689;28;20073;-60
2023/03/31 04:46:07;;;;;;;5.93;2.13;;;8.30;99.90;;;;;;4995316;28;20649;-59
2023/03/31 04:48:32;;;;;;;7.40;2.10;;;8.30;99.90;;;;;;4996992;28;20383;-58
2023/03/31 04:50:58;;;;;;;6.43;2.33;;;8.30;99.90;;;;;;4999527;28;20033;-59
2023/03/31 04:53:25;;;;;;;11.43;2.30;;;8.40;99.90;;;;;;4996791;28;20610;-59
2023/03/31 04:55:51;;;;;;;6.10;1.90;;;8.30;99.90;;;;;;4998447;28;20010;-59
2023/03/31 04:58:16;;;;;;;10.23;2.13;;;8.30;99.90;;;;;;4999657;28;20092;-60
2023/03/31 05:00:42;;;;;;;6.05;2.05;;;8.30;99.90;;;;;;4998186;28;20496;-60
2023/03/31 05:03:08;;;;;;;6.90;2.58;;;8.30;99.90;;;;;;4997783;28;20574;-60
2023/03/31 05:05:34;;;;;;;7.43;1.90;;;8.40;99.90;;;;;;4998258;28;20564;-60
2023/03/31 05:08:00;;;;;;;8.68;1.80;;;8.40;99.90;;;;;;5001869;28;20149;-58
2023/03/31 05:10:27;;;;;;;4.53;1.75;;;8.40;99.90;;;;;;4998218;28;20026;-58
2023/03/31 05:12:52;;;;;;;7.63;2.10;;;8.50;99.90;;;;;;4995005;28;20034;-60
2023/03/31 05:15:19;;;;;;;6.13;2.20;;;8.50;99.90;;;;;;4997511;28;20037;-59
2023/03/31 05:17:44;;;;;;;13.43;2.47;;;8.50;99.90;;;;;;5000412;28;20758;-60
2023/03/31 05:20:12;;;;;;;8.27;1.75;;;8.60;99.90;;;;;;4999777;28;20030;-59
2023/03/31 05:22:39;;;;;;;6.47;1.90;;;8.70;99.90;;;;;;5000440;28;20037;-58
2023/03/31 05:25:07;;;;;;;12.57;2.13;;;8.70;99.90;;;;;;5003319;28;20053;-58
2023/03/31 05:27:33;;;;;;;6.03;2.85;;;8.70;99.90;;;;;;4996687;28;20045;-59
2023/03/31 05:29:59;;;;;;;4.28;1.60;;;8.70;99.90;;;;;;4998113;28;20039;-60
2023/03/31 05:32:26;;;;;;;10.52;2.80;;;8.70;99.90;;;;;;4999117;28;20038;-60
2023/03/31 05:34:55;;;;;;;9.63;3.22;;;8.70;99.90;;;;;;4996556;28;20033;-59
2023/03/31 05:37:25;;;;;;;16.63;2.53;;;8.70;99.90;;;;;;5001737;28;20037;-59
2023/03/31 05:39:52;;;;;;;5.25;1.65;;;8.70;99.90;;;;;;4996826;28;20034;-60
2023/03/31 05:42:18;;;;;;;8.55;2.05;;;8.70;99.90;;;;;;4999166;28;20038;-60
2023/03/31 05:44:44;;;;;;;7.07;2.00;;;8.70;99.90;;;;;;4995147;28;20031;-58
2023/03/31 05:47:11;;;;;;;10.30;2.40;;;8.70;99.90;;;;;;4996353;28;20691;-60
2023/03/31 05:49:37;;;;;;;9.02;2.10;;;8.70;99.90;;;;;;4998640;28;20027;-59
2023/03/31 05:52:04;;;;;;;6.95;1.77;;;8.70;99.90;;;;;;4998587;28;20513;-58
2023/03/31 05:54:30;;;;;;;7.25;1.90;;;8.70;99.90;;;;;;4996822;28;20026;-59
2023/03/31 05:56:56;;;;;;;5.35;2.10;;;8.70;99.90;;;;;;4996675;28;20053;-60
2023/03/31 05:59:21;;;;;;;8.07;1.98;;;8.70;99.90;;;;;;4997561;28;20030;-60
2023/03/31 06:01:47;;;;;;;9.32;3.15;;;8.70;99.90;;;;;;4997779;28;20893;-59
2023/03/31 06:04:12;;;;;;;6.57;2.10;;;8.70;99.90;;;;;;4995628;28;20069;-60
2023/03/31 06:06:38;;;;;;;6.80;1.77;;;8.70;99.90;;;;;;4995683;28;20672;-59
2023/03/31 06:09:05;;;;;;;9.95;2.08;;;8.70;99.90;;;;;;4979442;28;20030;-59
2023/03/31 06:11:31;;;;;;;5.00;2.50;;;8.80;99.90;;;;;;4993996;28;20026;-60
2023/03/31 06:13:56;;;;;;;11.15;2.30;;;8.90;99.90;;;;;;4996565;28;20033;-60
2023/03/31 06:16:22;;;;;;;6.13;1.90;;;8.90;99.90;;;;;;4995702;28;20030;-59
2023/03/31 06:18:50;;;;;;;5.55;1.70;;;8.90;99.90;;;;;;4981925;28;20042;-60
2023/03/31 06:21:16;;;;;;;6.80;2.78;;;8.90;99.90;;;;;;4998093;28;20069;-60
2023/03/31 06:23:45;;;;;;;6.43;2.28;;;8.90;99.90;;;;;;4995765;28;20092;-60
2023/03/31 06:26:16;;;;;;;5.25;2.60;;;8.90;99.90;;;;;;4998687;28;20022;-59
2023/03/31 06:28:44;;;;;;;6.43;2.28;;;8.90;99.90;;;;;;4996034;28;20014;-59
2023/03/31 06:31:12;;;;;;;5.20;1.88;;;8.90;99.90;;;;;;4994019;28;20034;-59
2023/03/31 06:33:40;;;;;;;6.70;2.10;;;8.90;99.90;;;;;;4995796;28;20030;-60
2023/03/31 06:36:06;;;;;;;3.33;1.80;;;8.80;99.90;;;;;;4994860;28;20026;-60
2023/03/31 06:38:33;;;;;;;6.22;1.75;;;8.80;99.90;;;;;;4996757;28;20064;-59
2023/03/31 06:40:59;;;;;;;5.15;1.70;;;8.80;99.90;;;;;;4994498;28;20050;-59
2023/03/31 06:43:25;;;;;;;4.00;2.00;;;8.90;99.90;;;;;;4999077;28;20050;-60
2023/03/31 06:45:54;;;;;;;6.20;1.70;;;8.90;99.90;;;;;;4999126;28;20034;-59
2023/03/31 06:48:21;;;;;;;5.32;1.88;;;9.00;99.90;;;;;;4997689;28;20172;-61
2023/03/31 06:50:46;;;;;;;6.47;2.63;;;9.00;99.90;;;;;;4993947;28;20050;-59
2023/03/31 06:53:12;;;;;;;6.63;2.05;;;9.00;99.90;;;;;;4995962;28;20656;-60
2023/03/31 06:55:38;;;;;;;5.78;2.25;;;9.10;99.90;;;;;;4995834;28;20030;-59
2023/03/31 06:58:04;;;;;;;2.85;1.55;;;9.10;99.90;;;;;;5000025;28;20042;-59
2023/03/31 07:00:30;;;;;;;4.65;1.80;;;9.10;99.90;;;;;;4994906;28;20041;-59
2023/03/31 07:02:56;;;;;;;4.18;1.73;;;9.10;99.90;;;;;;4997064;28;20045;-59
2023/03/31 07:05:28;;;;;;;5.10;1.55;;;9.10;99.90;;;;;;4994571;28;20034;-58
2023/03/31 07:07:58;;;;;;;3.53;1.60;;;9.00;99.90;;;;;;4994923;28;20142;-59
2023/03/31 07:10:26;;;;;;;7.60;1.83;;;9.00;99.90;;;;;;4996136;28;20080;-60
2023/03/31 07:12:52;;;;;;;6.10;1.90;;;9.00;99.90;;;;;;4995013;28;20022;-59
2023/03/31 07:15:18;;;;;;;6.88;1.98;;;9.00;99.90;;;;;;4995344;28;21342;-59
2023/03/31 07:17:43;;;;;;;6.32;2.05;;;8.90;99.90;;;;;;4994900;28;20092;-58
2023/03/31 07:20:14;;;;;;;4.05;1.85;;;8.90;99.90;;;;;;4993716;28;20034;-59
2023/03/31 07:22:41;;;;;;;12.65;2.38;;;8.90;99.90;;;;;;4998037;28;20033;-60
2023/03/31 07:25:12;;;;;;;4.55;1.80;;;8.90;99.90;;;;;;4996955;28;20593;-61
2023/03/31 07:27:37;;;;;;;4.35;2.20;;;8.80;99.90;;;;;;4998284;28;20097;-61
2023/03/31 07:30:08;;;;;;;7.15;2.33;;;8.80;99.90;;;;;;4996689;28;20402;-60
2023/03/31 07:32:38;;;;;;;5.65;2.28;;;8.80;99.90;;;;;;4995472;28;20038;-59
2023/03/31 07:35:04;;;;;;;7.18;2.42;;;8.80;99.90;;;;;;4995876;28;20032;-59
2023/03/31 07:37:35;;;;;;;6.55;2.38;;;8.80;99.90;;;;;;4995895;28;20037;-61
2023/03/31 07:40:00;;;;;;;11.18;3.25;;;8.80;99.90;;;;;;4993638;28;20057;-59
2023/03/31 07:42:26;;;;;;;11.05;2.80;;;8.80;99.90;;;;;;4997071;28;20053;-61
2023/03/31 07:44:52;;;;;;;6.07;3.03;;;8.80;99.90;;;;;;4997400;28;20033;-61
2023/03/31 07:47:17;;;;;;;7.88;2.40;;;8.80;99.90;;;;;;4999775;28;20022;-60
2023/03/31 07:49:43;;;;;;;7.80;2.80;;;8.80;99.90;;;;;;4997594;28;20045;-60
2023/03/31 07:52:08;;;;;;;9.73;2.35;;;8.80;99.90;;;;;;4999083;28;20021;-61
2023/03/31 07:54:34;;;;;;;12.95;3.13;;;8.80;99.90;;;;;;4997746;28;20038;-59
2023/03/31 07:57:04;;;;;;;4.00;2.53;;;8.80;99.90;;;;;;4998428;28;20033;-59
2023/03/31 07:59:30;;;;;;;9.25;3.05;;;8.90;99.90;;;;;;4996395;28;20026;-59
2023/03/31 08:01:56;;;;;;;4.45;2.40;;;8.90;99.90;;;;;;4997646;28;20026;-60
2023/03/31 08:04:22;;;;;;;8.10;2.55;;;8.90;99.90;;;;;;5000213;28;20055;-62
2023/03/31 08:06:47;;;;;;;10.23;2.78;;;9.00;99.90;;;;;;4997320;28;20054;-59
2023/03/31 08:09:13;;;;;;;6.40;2.90;;;9.00;99.90;;;;;;4997825;28;20103;-59
2023/03/31 08:11:38;;;;;;;7.72;2.50;;;9.00;99.90;;;;;;4999050;28;20387;-60
2023/03/31 08:14:04;;;;;;;11.02;2.67;;;9.00;99.90;;;;;;4998547;28;20026;-61
2023/03/31 08:16:30;;;;;;;6.28;2.65;;;9.10;99.90;;;;;;4998731;28;20017;-60
2023/03/31 08:18:56;;;;;;;4.65;2.83;;;9.10;99.90;;;;;;4998111;28;20031;-59
2023/03/31 08:21:21;;;;;;;7.88;2.30;;;9.00;99.90;;;;;;5000390;28;20049;-59
2023/03/31 08:23:47;;;;;;;9.38;3.28;;;9.10;99.90;;;;;;4998128;28;20072;-60
2023/03/31 08:26:18;;;;;;;5.95;2.60;;;9.00;99.90;;;;;;4997492;28;20501;-59
2023/03/31 08:28:44;;;;;;;5.10;2.60;;;9.00;99.90;;;;;;4999787;28;20149;-61
2023/03/31 08:31:10;;;;;;;9.70;2.90;;;9.00;99.90;;;;;;4998696;28;20742;-60
2023/03/31 08:33:36;;;;;;;10.60;3.05;;;9.00;99.90;;;;;;4994519;28;20041;-60
2023/03/31 08:36:07;;;;;;;13.38;2.97;;;9.00;99.90;;;;;;5000198;28;20049;-60
2023/03/31 08:38:37;;;;;;;;;;;9.00;99.90;;;;;;4999968;28;20141;-61
2023/03/31 08:41:06;;;;;;;9.77;2.92;;;9.00;99.90;;;;;;4996936;28;19906;-59
2023/03/31 08:43:38;;;;;;;7.70;2.58;;;9.10;99.90;;;;;;5005882;28;20022;-61
2023/03/31 08:46:04;;;;;;;6.90;2.75;;;9.10;99.90;;;;;;4996438;28;20620;-60
2023/03/31 08:48:37;;;;;;;9.18;3.15;;;9.00;99.90;;;;;;4997162;28;20034;-61
2023/03/31 08:51:23;;;;;;;8.35;3.72;;;9.00;99.90;;;;;;5000297;28;20049;-61
2023/03/31 08:54:01;;;;;;;10.93;4.00;;;9.10;99.90;;;;;;4997305;28;20052;-62
2023/03/31 08:56:28;;;;;;;10.60;4.20;;;9.00;99.90;;;;;;4998573;28;20038;-60
2023/03/31 08:59:00;;;;;;;10.27;4.38;;;9.00;99.90;;;;;;4996975;28;20041;-60
2023/03/31 09:01:30;;;;;;;13.52;4.13;;;9.00;99.90;;;;;;4995197;28;20038;-61
2023/03/31 09:04:17;;;;;;;11.77;4.57;;;9.00;99.90;;;;;;4999580;28;20510;-60
2023/03/31 09:06:54;;;;;;;12.82;4.75;;;9.00;99.90;;;;;;4996140;28;20034;-61
2023/03/31 09:09:37;;;;;;;15.40;4.50;;;9.00;99.90;;;;;;5001323;28;20030;-62
2023/03/31 09:12:34;;;;;;;12.27;4.13;;;9.00;99.90;;;;;;4996839;28;20042;-61
2023/03/31 09:15:07;;;;;;;11.68;5.63;;;9.00;99.90;;;;;;4998777;28;20038;-58
2023/03/31 09:17:40;;;;;;;10.25;5.18;;;9.00;99.90;;;;;;4998610;28;20042;-61
2023/03/31 09:20:33;;;;;;;10.15;6.30;;;9.00;99.90;;;;;;4998463;28;20033;-61
2023/03/31 09:23:20;;;;;;;8.68;4.47;;;8.90;99.90;;;;;;4999539;28;20033;-60
2023/03/31 09:25:46;;;;;;;14.52;4.80;;;8.90;99.90;;;;;;4999170;28;20053;-62
2023/03/31 09:28:24;;;;;;;10.23;4.82;;;9.00;99.90;;;;;;4997055;28;20038;-61
2023/03/31 09:30:51;;;;;;;12.35;5.28;;;9.00;99.90;;;;;;4999899;28;20077;-61
2023/03/31 09:33:27;;;;;;;10.73;6.32;;;9.00;99.90;;;;;;4995679;28;20038;-60
2023/03/31 09:35:53;;;;;;;12.98;5.75;;;9.10;99.90;;;;;;4998813;28;20465;-59
2023/03/31 09:38:18;;;;;;;18.08;5.85;;;9.00;99.90;;;;;;4999494;28;20062;-60
2023/03/31 09:40:44;;;;;;;9.88;5.97;;;9.10;99.90;;;;;;4999515;28;20117;-61
2023/03/31 09:43:28;;;;;;;16.88;6.28;;;9.10;99.90;;;;;;4997091;28;20064;-61
2023/03/31 09:45:55;;;;;;;10.73;6.07;;;9.10;99.90;;;;;;4997551;28;20045;-60
2023/03/31 09:48:34;;;;;;;17.52;6.55;;;9.10;99.90;;;;;;5002790;28;20204;-62
2023/03/31 09:51:07;;;;;;;13.68;6.15;;;9.10;99.90;;;;;;4996129;28;20825;-60
2023/03/31 09:54:09;;;;;;;10.57;5.97;;;9.10;99.90;;;;;;4999118;28;20041;-60
2023/03/31 09:56:41;;;;;;;16.75;6.85;;;9.20;99.90;;;;;;4999342;28;20038;-60
2023/03/31 09:59:18;;;;;;;11.75;6.15;;;9.20;99.90;;;;;;4998293;28;20030;-59
2023/03/31 10:01:45;;;;;;;11.30;6.20;;;9.30;99.90;;;;;;4998523;28;20079;-61
2023/03/31 10:04:24;;;;;;;11.43;7.28;;;9.30;99.90;;;;;;4997663;28;20784;-59
2023/03/31 10:06:53;;;;;;;13.80;7.30;;;9.30;99.90;;;;;;4997200;28;20045;-60
2023/03/31 10:09:23;;;;;;;17.42;7.95;;;9.30;99.90;;;;;;4999759;28;20041;-62
2023/03/31 10:12:01;;;;;;;9.18;6.90;;;9.40;99.90;;;;;;4998202;28;20064;-60
2023/03/31 10:14:46;;;;;;;12.00;6.80;;;9.50;99.90;;;;;;4997409;28;20050;-60
2023/03/31 10:17:15;;;;;;;14.05;7.70;;;9.50;99.90;;;;;;4999055;28;20081;-60
2023/03/31 10:19:48;;;;;;;8.77;7.63;;;9.60;99.90;;;;;;4996005;28;20110;-60
2023/03/31 10:22:21;;;;;;;14.27;7.75;;;9.60;99.90;;;;;;4996164;28;20033;-61
2023/03/31 10:24:49;;;;;;;10.68;6.90;;;9.50;99.90;;;;;;5000405;28;20037;-60
2023/03/31 10:27:23;;;;;;;8.20;5.10;;;9.60;99.90;;;;;;4995689;28;20096;-61
2023/03/31 10:29:52;;;;;;;8.32;5.93;;;9.60;99.90;;;;;;4997884;28;20045;-60
2023/03/31 10:32:30;;;;;;;6.82;4.60;;;9.70;99.90;;;;;;4996182;28;20060;-60
2023/03/31 10:34:57;;;;;;;8.43;3.72;;;9.70;99.90;;;;;;4998095;28;20050;-61
2023/03/31 10:37:26;;;;;;;6.10;4.28;;;9.80;99.90;;;;;;4995178;28;20609;-61
2023/03/31 10:40:14;;;;;;;5.47;4.00;;;9.80;99.90;;;;;;4997986;28;20042;-60
2023/03/31 10:42:43;;;;;;;5.68;3.80;;;9.80;99.90;;;;;;4998186;28;20394;-61
2023/03/31 10:45:23;;;;;;;6.22;4.35;;;9.80;99.90;;;;;;4994543;28;20038;-61
2023/03/31 10:47:53;;;;;;;5.93;3.63;;;9.80;99.90;;;;;;4993745;28;20736;-62
2023/03/31 10:50:18;;;;;;;5.53;3.03;;;9.80;99.90;;;;;;4995002;28;20067;-60
2023/03/31 10:52:47;;;;;;;5.75;2.95;;;9.80;99.90;;;;;;4996083;28;20037;-59
2023/03/31 10:55:26;;;;;;;5.82;2.85;;;9.80;99.90;;;;;;4997079;28;20502;-60
2023/03/31 10:57:56;;;;;;;4.63;2.70;;;9.80;99.90;;;;;;4996478;28;20503;-62
2023/03/31 11:00:36;;;;;;;5.80;2.35;;;10.00;99.90;;;;;;4996670;28;20580;-61
2023/03/31 11:03:14;;;;;;;4.53;1.80;;;10.20;99.90;;;;;;4995956;28;20486;-60
2023/03/31 11:06:01;;;;;;;1.80;1.40;;;10.30;99.90;;;;;;4998846;28;20034;-62
2023/03/31 11:08:49;;;;;;;4.05;1.35;;;10.30;99.90;;;;;;4995456;28;20054;-62
2023/03/31 11:11:22;;;;;;;3.08;1.40;;;10.20;99.90;;;;;;4994611;28;20026;-61
2023/03/31 11:14:06;;;;;;;1.30;0.80;;;10.00;99.90;;;;;;4997768;28;20034;-60
2023/03/31 11:16:57;;;;;;;2.15;0.80;;;9.90;99.90;;;;;;4998980;28;20524;-60
2023/03/31 11:20:11;;;;;;;1.88;0.90;;;9.80;99.90;;;;;;4998945;28;20030;-63
2023/03/31 11:22:47;;;;;;;2.45;1.10;;;9.70;99.90;;;;;;5001920;28;20030;-61
2023/03/31 11:25:47;;;;;;;2.80;1.10;;;9.70;99.90;;;;;;5000922;28;20045;-59
2023/03/31 11:28:36;;;;;;;2.65;1.50;;;9.70;99.90;;;;;;4997950;28;20069;-60
2023/03/31 11:31:07;;;;;;;3.10;1.25;;;9.70;99.90;;;;;;5001501;28;20528;-60
2023/03/31 11:33:46;;;;;;;3.28;1.00;;;9.80;99.90;;;;;;5000217;28;20044;-62
2023/03/31 11:37:06;;;;;;;2.88;1.20;;;9.80;99.90;;;;;;4998753;28;20113;-60
2023/03/31 11:39:39;;;;;;;1.02;0.88;;;9.90;99.90;;;;;;4987690;28;20038;-62
2023/03/31 11:42:18;;;;;;;2.47;0.90;;;9.90;99.90;;;;;;4987100;28;20030;-59
2023/03/31 11:44:51;;;;;;;2.15;1.00;;;10.00;99.90;;;;;;4995308;28;20026;-62
2023/03/31 11:47:31;;;;;;;2.05;1.02;;;10.10;99.90;;;;;;4997881;28;20173;-60
2023/03/31 11:50:02;;;;;;;1.38;0.80;;;10.20;99.90;;;;;;4998979;28;20031;-60
2023/03/31 11:52:40;;;;;;;1.88;0.60;;;10.30;99.90;;;;;;4999538;28;20028;-61
2023/03/31 11:55:20;;;;;;;1.75;0.90;;;10.60;99.90;;;;;;5002824;28;20037;-59
2023/03/31 11:58:08;;;;;;;1.50;0.80;;;10.80;99.90;;;;;;5002308;28;20038;-59
2023/03/31 12:01:12;;;;;;;1.98;0.70;;;10.90;99.90;;;;;;5003600;28;20037;-61
2023/03/31 12:03:51;;;;;;;1.90;0.70;;;10.90;99.90;;;;;;5003190;28;20164;-60
2023/03/31 12:06:20;;;;;;;3.03;0.70;;;10.90;99.90;;;;;;4997801;28;20073;-59
2023/03/31 12:09:11;;;;;;;2.33;1.00;;;10.70;99.90;;;;;;4998737;28;20157;-59
2023/03/31 12:11:50;;;;;;;1.40;0.50;;;10.60;99.90;;;;;;4997369;28;20041;-61
2023/03/31 12:14:57;;;;;;;1.58;0.50;;;10.60;99.90;;;;;;4998035;28;20038;-59
2023/03/31 12:17:26;;;;;;;0.95;0.40;;;10.50;99.90;;;;;;4982016;28;20421;-61
2023/03/31 12:19:59;;;;;;;0.88;0.50;;;10.60;99.90;;;;;;4992937;28;20868;-61
2023/03/31 12:22:27;;;;;;;1.60;0.60;;;10.60;99.90;;;;;;4997777;28;20537;-61
2023/03/31 12:24:53;;;;;;;1.20;0.50;;;10.70;99.90;;;;;;5001089;28;20037;-61
2023/03/31 12:27:39;;;;;;;1.02;0.75;;;10.80;99.90;;;;;;4999127;28;20026;-60
2023/03/31 12:30:10;;;;;;;0.50;0.40;;;10.90;99.90;;;;;;5001105;28;20438;-60
2023/03/31 12:32:44;;;;;;;1.10;0.40;;;11.00;99.90;;;;;;4996316;28;20190;-61
2023/03/31 12:35:21;;;;;;;1.05;0.50;;;11.00;99.90;;;;;;4995529;28;20101;-61
2023/03/31 12:37:50;;;;;;;1.20;0.30;;;10.90;99.90;;;;;;5001888;28;20069;-61
2023/03/31 12:40:21;;;;;;;1.13;0.90;;;10.80;99.90;;;;;;4997024;28;20026;-60
2023/03/31 12:42:50;;;;;;;0.43;0.32;;;10.80;99.90;;;;;;4993138;28;20069;-60
2023/03/31 12:45:30;;;;;;;1.38;0.60;;;10.80;99.90;;;;;;4995046;28;20566;-60
2023/03/31 12:48:04;;;;;;;1.05;0.30;;;10.80;99.90;;;;;;4997743;28;20054;-59
2023/03/31 12:51:14;;;;;;;0.40;0.30;;;11.00;99.90;;;;;;4998064;28;20639;-60
2023/03/31 12:54:07;;;;;;;2.45;0.30;;;11.10;99.90;;;;;;4997426;28;20234;-60
2023/03/31 12:57:00;;;;;;;0.40;0.40;;;11.40;99.90;;;;;;4998070;28;20038;-61
2023/03/31 12:59:34;;;;;;;0.43;0.30;;;11.70;99.90;;;;;;5000668;28;20129;-60
2023/03/31 13:02:09;;;;;;;2.95;0.40;;;11.90;99.90;;;;;;4996645;28;20022;-61
2023/03/31 13:04:37;;;;;;;1.35;0.40;;;12.20;99.90;;;;;;4997337;28;20030;-60
2023/03/31 13:07:07;;;;;;;0.50;0.40;;;12.50;99.90;;;;;;4996300;28;20030;-61
2023/03/31 13:09:32;;;;;;;4.10;0.60;;;12.60;99.90;;;;;;4995577;28;20042;-60
2023/03/31 13:12:06;;;;;;;1.65;0.50;;;12.70;99.90;;;;;;4994087;28;20088;-62
2023/03/31 13:14:41;;;;;;;1.65;0.60;;;12.80;99.90;;;;;;4996795;28;20088;-61
2023/03/31 13:17:25;;;;;;;0.85;0.50;;;12.70;99.90;;;;;;4997538;28;20028;-62
2023/03/31 13:19:53;;;;;;;1.05;0.57;;;12.70;99.90;;;;;;4999767;28;20064;-60
2023/03/31 13:22:27;;;;;;;1.20;0.75;;;12.70;99.90;;;;;;4998609;28;20030;-60